Time;durP1;ratioP1;P1;durP2;ratioP2;P2;SDS_P1;SDS_P2;PMS_P1;PMS_P2;Temp;Humidity;BMP_temperature;BMP_pressure;BME280_temperature;BME280_humidity;BME280_pressure;Samples;Min_cycle;Max_cycle;Signal;HPM_P1;HPM_P2
2023/05/27 00:01:12;;;;;;;11.33;4.90;;;16.60;52.60;;;;;;5114608;28;20450;-57
2023/05/27 00:03:40;;;;;;;17.27;5.97;;;16.60;52.70;;;;;;5114503;28;20447;-57
2023/05/27 00:06:07;;;;;;;14.23;5.50;;;16.50;52.70;;;;;;5114063;28;20499;-57
2023/05/27 00:08:34;;;;;;;15.03;5.90;;;16.50;52.90;;;;;;5114440;28;20447;-57
2023/05/27 00:11:01;;;;;;;14.23;5.60;;;16.50;53.10;;;;;;5114121;28;20481;-57
2023/05/27 00:13:27;;;;;;;10.27;5.33;;;16.40;53.20;;;;;;5114348;28;20469;-57
2023/05/27 00:15:54;;;;;;;15.00;5.03;;;16.40;53.40;;;;;;5114192;28;20514;-57
2023/05/27 00:18:21;;;;;;;14.40;4.93;;;16.30;53.50;;;;;;5114268;28;20442;-57
2023/05/27 00:20:49;;;;;;;10.30;5.13;;;16.30;53.70;;;;;;5114222;28;20492;-57
2023/05/27 00:23:16;;;;;;;10.57;5.40;;;16.20;53.90;;;;;;5114127;28;20451;-57
2023/05/27 00:25:42;;;;;;;17.33;5.30;;;16.20;54.20;;;;;;5114100;28;20455;-57
2023/05/27 00:28:09;;;;;;;15.57;6.17;;;16.10;54.50;;;;;;5114866;28;20921;-57
2023/05/27 00:30:36;;;;;;;11.60;4.90;;;16.00;54.60;;;;;;5114077;28;20819;-57
2023/05/27 00:33:03;;;;;;;11.50;5.03;;;15.90;54.90;;;;;;5114041;28;20523;-57
2023/05/27 00:35:30;;;;;;;16.77;5.70;;;15.90;55.20;;;;;;5113872;28;20593;-57
2023/05/27 00:37:58;;;;;;;14.07;5.23;;;15.80;55.50;;;;;;5113985;28;20531;-57
2023/05/27 00:40:27;;;;;;;14.43;5.97;;;15.80;55.60;;;;;;5113631;28;20944;-57
2023/05/27 00:42:53;;;;;;;12.20;5.10;;;15.70;55.80;;;;;;5113957;28;20443;-57
2023/05/27 00:45:20;;;;;;;9.87;5.23;;;15.60;56.00;;;;;;5112895;28;20465;-57
2023/05/27 00:47:47;;;;;;;8.30;4.70;;;15.60;56.30;;;;;;5113899;28;20447;-57
2023/05/27 00:50:14;;;;;;;13.00;5.60;;;15.60;56.60;;;;;;5114355;28;20447;-57
2023/05/27 00:52:42;;;;;;;12.37;7.10;;;15.50;56.70;;;;;;5113855;28;20470;-57
2023/05/27 00:55:10;;;;;;;12.00;5.30;;;15.50;56.80;;;;;;5113789;28;20573;-57
2023/05/27 00:57:37;;;;;;;14.87;5.33;;;15.50;57.00;;;;;;5113919;28;20443;-57
2023/05/27 01:00:09;;;;;;;8.40;4.63;;;15.40;57.30;;;;;;5113893;28;20446;-57
2023/05/27 01:02:36;;;;;;;12.10;4.80;;;15.40;57.40;;;;;;5114433;28;20434;-57
2023/05/27 01:05:03;;;;;;;12.37;5.47;;;15.40;57.50;;;;;;5113646;28;20895;-57
2023/05/27 01:07:38;;;;;;;20.80;5.40;;;15.40;57.70;;;;;;5114082;28;20442;-57
2023/05/27 01:10:16;;;;;;;12.80;5.53;;;15.40;57.90;;;;;;5113923;28;20426;-57
2023/05/27 01:12:49;;;;;;;13.73;5.03;;;15.30;57.90;;;;;;5113915;28;20427;-57
2023/05/27 01:15:16;;;;;;;15.83;5.47;;;15.30;58.00;;;;;;5113666;28;20486;-57
2023/05/27 01:17:46;;;;;;;11.57;5.00;;;15.30;58.30;;;;;;5113950;28;20462;-57
2023/05/27 01:20:15;;;;;;;11.83;5.23;;;15.20;58.30;;;;;;5113661;28;20872;-57
2023/05/27 01:22:44;;;;;;;18.30;5.70;;;15.20;58.40;;;;;;5113324;28;20953;-57
2023/05/27 01:25:11;;;;;;;18.27;7.10;;;15.20;58.60;;;;;;5114163;28;20463;-57
2023/05/27 01:27:40;;;;;;;13.43;4.90;;;15.10;58.70;;;;;;5114881;28;20447;-59
2023/05/27 01:30:08;;;;;;;8.73;5.17;;;15.10;58.90;;;;;;5114671;28;20863;-57
2023/05/27 01:32:42;;;;;;;11.03;5.50;;;15.10;58.90;;;;;;5113688;28;20446;-57
2023/05/27 01:35:17;;;;;;;20.17;5.73;;;15.10;59.00;;;;;;5113349;28;20473;-57
2023/05/27 01:37:46;;;;;;;13.20;5.53;;;15.00;59.20;;;;;;5113560;28;20430;-57
2023/05/27 01:40:14;;;;;;;14.93;5.67;;;15.00;59.30;;;;;;5113390;28;20443;-57
2023/05/27 01:42:43;;;;;;;14.50;5.03;;;14.90;59.30;;;;;;5113375;28;20450;-57
2023/05/27 01:45:10;;;;;;;14.00;6.93;;;14.90;59.60;;;;;;5113377;28;20496;-57
2023/05/27 01:47:37;;;;;;;15.23;5.37;;;14.90;59.70;;;;;;5113486;28;20446;-57
2023/05/27 01:50:05;;;;;;;11.17;5.23;;;14.90;59.90;;;;;;5113377;28;20453;-57
2023/05/27 01:52:32;;;;;;;17.90;6.07;;;14.80;59.90;;;;;;5113248;28;20500;-57
2023/05/27 01:55:00;;;;;;;11.37;4.90;;;14.80;60.20;;;;;;5113206;28;20446;-57
2023/05/27 01:57:27;;;;;;;15.40;5.90;;;14.80;60.40;;;;;;5115370;28;20439;-57
2023/05/27 01:59:54;;;;;;;9.93;5.30;;;14.80;60.60;;;;;;5117179;28;20449;-57
2023/05/27 02:02:20;;;;;;;14.00;4.87;;;14.70;60.70;;;;;;5116906;28;20442;-57
2023/05/27 02:04:47;;;;;;;18.27;5.43;;;14.70;61.00;;;;;;5116815;28;20442;-57
2023/05/27 02:07:14;;;;;;;10.90;5.50;;;14.70;61.20;;;;;;5116901;28;20465;-57
2023/05/27 02:09:41;;;;;;;12.47;4.40;;;14.70;61.40;;;;;;5116783;28;20450;-57
2023/05/27 02:12:09;;;;;;;13.67;5.30;;;14.60;61.50;;;;;;5116429;28;20476;-57
2023/05/27 02:14:38;;;;;;;14.40;5.17;;;14.60;61.80;;;;;;5116707;28;20474;-57
2023/05/27 02:17:05;;;;;;;11.10;5.20;;;14.60;62.10;;;;;;5116461;28;20478;-57
2023/05/27 02:19:32;;;;;;;11.13;4.90;;;14.50;62.10;;;;;;5116635;28;20816;-57
2023/05/27 02:21:58;;;;;;;11.80;4.80;;;14.50;62.40;;;;;;5116530;28;20449;-57
2023/05/27 02:24:25;;;;;;;16.97;5.50;;;14.50;62.50;;;;;;5116469;28;20474;-57
2023/05/27 02:26:52;;;;;;;14.57;5.90;;;14.50;62.80;;;;;;5116433;28;20488;-57
2023/05/27 02:29:20;;;;;;;16.00;5.70;;;14.40;63.00;;;;;;5116354;28;20811;-57
2023/05/27 02:31:46;;;;;;;8.90;4.83;;;14.30;63.10;;;;;;5116614;28;20468;-57
2023/05/27 02:34:13;;;;;;;13.63;5.17;;;14.30;63.60;;;;;;5116339;28;20443;-57
2023/05/27 02:36:40;;;;;;;15.73;5.97;;;14.20;64.00;;;;;;5116158;28;20489;-57
2023/05/27 02:39:08;;;;;;;16.50;5.07;;;14.20;64.30;;;;;;5116293;28;20453;-57
2023/05/27 02:41:35;;;;;;;14.93;5.83;;;14.10;64.50;;;;;;5116242;28;20451;-57
2023/05/27 02:44:02;;;;;;;14.80;5.97;;;14.00;64.70;;;;;;5116150;28;20862;-57
2023/05/27 02:46:30;;;;;;;14.27;4.80;;;14.00;65.10;;;;;;5116056;28;20459;-57
2023/05/27 02:48:56;;;;;;;13.27;5.23;;;14.00;65.30;;;;;;5116041;28;20439;-57
2023/05/27 02:51:23;;;;;;;16.77;5.83;;;14.00;65.60;;;;;;5116023;28;20453;-57
2023/05/27 02:53:51;;;;;;;8.03;5.77;;;13.90;65.90;;;;;;5115913;28;20446;-57
2023/05/27 02:56:18;;;;;;;13.37;5.57;;;13.90;66.20;;;;;;5115768;28;20494;-57
2023/05/27 02:58:45;;;;;;;12.83;4.60;;;13.80;66.40;;;;;;5115515;28;20956;-57
2023/05/27 03:01:11;;;;;;;15.60;4.73;;;13.80;66.70;;;;;;5115756;28;20475;-57
2023/05/27 03:03:40;;;;;;;10.90;5.27;;;13.70;67.10;;;;;;5115769;28;20454;-57
2023/05/27 03:06:07;;;;;;;12.77;6.20;;;13.70;67.60;;;;;;5115471;28;20838;-57
2023/05/27 03:08:33;;;;;;;15.53;5.73;;;13.70;67.80;;;;;;5114694;28;20708;-57
2023/05/27 03:11:00;;;;;;;12.40;5.53;;;13.70;68.20;;;;;;5115148;28;20860;-57
2023/05/27 03:13:27;;;;;;;10.20;4.63;;;13.60;68.20;;;;;;5115509;28;20500;-57
2023/05/27 03:15:54;;;;;;;17.90;6.20;;;13.70;68.40;;;;;;5115398;28;20491;-57
2023/05/27 03:18:20;;;;;;;15.30;5.90;;;13.60;68.50;;;;;;5115472;28;20447;-57
2023/05/27 03:20:50;;;;;;;16.00;6.50;;;13.60;68.80;;;;;;5115088;28;20846;-57
2023/05/27 03:23:16;;;;;;;13.40;5.10;;;13.60;69.10;;;;;;5115327;28;20794;-57
2023/05/27 03:25:43;;;;;;;12.80;5.50;;;13.50;69.20;;;;;;5114931;28;20474;-57
2023/05/27 03:28:10;;;;;;;16.27;5.80;;;13.50;69.70;;;;;;5115297;28;20801;-57
2023/05/27 03:30:38;;;;;;;12.20;5.43;;;13.50;69.90;;;;;;5115184;28;20438;-57
2023/05/27 03:33:04;;;;;;;14.90;5.30;;;13.50;70.00;;;;;;5115215;28;20451;-57
2023/05/27 03:35:31;;;;;;;14.93;5.80;;;13.40;70.10;;;;;;5115046;28;20471;-57
2023/05/27 03:37:59;;;;;;;13.37;6.37;;;13.40;70.50;;;;;;5115903;28;20446;-57
2023/05/27 03:40:26;;;;;;;15.33;5.67;;;13.40;70.60;;;;;;5115026;28;20450;-57
2023/05/27 03:42:53;;;;;;;13.20;5.73;;;13.40;70.70;;;;;;5114998;28;20442;-57
2023/05/27 03:45:20;;;;;;;16.07;6.23;;;13.30;70.80;;;;;;5114864;28;20477;-57
2023/05/27 03:47:47;;;;;;;15.23;6.20;;;13.30;71.00;;;;;;5114852;28;20446;-57
2023/05/27 03:50:13;;;;;;;15.67;5.30;;;13.30;71.30;;;;;;5114798;28;20447;-57
2023/05/27 03:52:40;;;;;;;18.00;6.10;;;13.30;71.40;;;;;;5114899;28;20455;-57
2023/05/27 03:55:09;;;;;;;14.30;5.37;;;13.30;71.60;;;;;;5114661;28;20486;-57
2023/05/27 03:57:36;;;;;;;11.50;5.73;;;13.20;71.70;;;;;;5114684;28;20486;-57
2023/05/27 04:00:06;;;;;;;15.00;6.10;;;13.30;71.80;;;;;;5115464;28;20447;-57
2023/05/27 04:02:32;;;;;;;13.20;6.33;;;13.30;72.10;;;;;;5114669;28;20455;-57
2023/05/27 04:05:00;;;;;;;16.87;5.90;;;13.30;72.00;;;;;;5114554;28;20443;-57
2023/05/27 04:07:28;;;;;;;17.10;6.00;;;13.30;72.00;;;;;;5114550;28;20842;-58
2023/05/27 04:09:55;;;;;;;13.70;6.20;;;13.30;72.10;;;;;;5115154;28;20443;-57
2023/05/27 04:12:23;;;;;;;11.60;5.97;;;13.30;72.20;;;;;;5115072;28;20451;-57
2023/05/27 04:14:50;;;;;;;16.03;6.37;;;13.30;72.50;;;;;;5115287;28;20451;-58
2023/05/27 04:17:17;;;;;;;15.07;6.50;;;13.30;72.70;;;;;;5114804;28;20486;-57
2023/05/27 04:19:44;;;;;;;16.10;6.20;;;13.30;72.80;;;;;;5113909;28;21092;-57
2023/05/27 04:22:11;;;;;;;12.60;5.50;;;13.30;72.90;;;;;;5114302;28;20511;-57
2023/05/27 04:24:39;;;;;;;15.90;6.80;;;13.30;73.10;;;;;;5114331;28;20450;-57
2023/05/27 04:27:06;;;;;;;12.67;6.53;;;13.30;73.40;;;;;;5114908;28;20463;-57
2023/05/27 04:29:34;;;;;;;14.87;6.80;;;13.30;73.60;;;;;;5114198;28;20458;-57
2023/05/27 04:32:01;;;;;;;12.27;6.10;;;13.30;73.90;;;;;;5114143;28;20443;-57
2023/05/27 04:34:28;;;;;;;14.93;6.30;;;13.30;74.00;;;;;;5114079;28;20847;-57
2023/05/27 04:36:55;;;;;;;16.53;5.40;;;13.30;74.20;;;;;;5113921;28;20493;-57
2023/05/27 04:39:22;;;;;;;18.87;6.30;;;13.30;74.20;;;;;;5114027;28;20451;-57
2023/05/27 04:41:49;;;;;;;16.07;6.00;;;13.30;74.50;;;;;;5114107;28;20508;-57
2023/05/27 04:44:17;;;;;;;15.10;6.17;;;13.30;74.70;;;;;;5113956;28;20443;-57
2023/05/27 04:46:45;;;;;;;15.87;6.50;;;13.40;75.20;;;;;;5113751;28;20473;-57
2023/05/27 04:49:11;;;;;;;12.50;6.23;;;13.40;75.30;;;;;;5113852;28;20455;-57
2023/05/27 04:51:38;;;;;;;16.53;6.40;;;13.40;75.60;;;;;;5113892;28;20443;-57
2023/05/27 04:54:05;;;;;;;10.57;5.93;;;13.40;75.90;;;;;;5113564;28;20446;-57
2023/05/27 04:56:32;;;;;;;11.90;6.57;;;13.40;76.10;;;;;;5113431;28;20932;-57
2023/05/27 04:58:59;;;;;;;16.93;6.43;;;13.50;76.40;;;;;;5113866;28;20458;-57
2023/05/27 05:01:27;;;;;;;13.50;6.77;;;13.50;76.60;;;;;;5113746;28;20503;-57
2023/05/27 05:04:11;;;;;;;14.87;6.77;;;13.60;76.70;;;;;;5113432;28;20953;-57
2023/05/27 05:06:38;;;;;;;11.33;6.40;;;13.60;76.70;;;;;;5113665;28;20466;-57
2023/05/27 05:09:05;;;;;;;13.30;6.10;;;13.70;76.80;;;;;;5113726;28;20443;-57
2023/05/27 05:11:32;;;;;;;14.50;6.70;;;13.80;76.80;;;;;;5113738;28;20546;-57
2023/05/27 05:13:58;;;;;;;15.00;5.70;;;13.80;76.80;;;;;;5113601;28;20566;-57
2023/05/27 05:16:25;;;;;;;12.53;5.97;;;13.80;76.90;;;;;;5113484;28;20482;-57
2023/05/27 05:18:52;;;;;;;18.87;6.43;;;13.90;77.20;;;;;;5113639;28;20885;-57
2023/05/27 05:21:20;;;;;;;11.20;5.27;;;13.90;77.00;;;;;;5113481;28;20498;-57
2023/05/27 05:23:47;;;;;;;12.87;6.70;;;13.90;77.00;;;;;;5113616;28;20473;-57
2023/05/27 05:26:13;;;;;;;14.23;6.70;;;14.00;77.20;;;;;;5113216;28;21035;-57
2023/05/27 05:28:40;;;;;;;20.10;7.50;;;14.00;76.90;;;;;;5113488;28;20447;-57
2023/05/27 05:31:07;;;;;;;20.97;7.30;;;14.10;77.00;;;;;;5113249;28;20947;-57
2023/05/27 05:33:34;;;;;;;18.80;6.63;;;14.10;76.70;;;;;;5117534;28;20442;-57
2023/05/27 05:36:00;;;;;;;13.50;6.57;;;14.10;76.40;;;;;;5117382;28;20467;-57
2023/05/27 05:38:29;;;;;;;14.37;6.53;;;14.20;76.50;;;;;;5117318;28;20490;-57
2023/05/27 05:40:56;;;;;;;17.97;7.50;;;14.20;76.30;;;;;;5117366;28;20450;-57
2023/05/27 05:43:23;;;;;;;13.63;6.80;;;14.30;76.20;;;;;;5117302;28;20445;-57
2023/05/27 05:45:49;;;;;;;15.83;7.33;;;14.30;75.90;;;;;;5117176;28;20483;-57
2023/05/27 05:48:16;;;;;;;17.03;6.60;;;14.40;76.10;;;;;;5117189;28;20845;-57
2023/05/27 05:50:43;;;;;;;13.00;7.60;;;14.50;76.00;;;;;;5117201;28;20443;-57
2023/05/27 05:53:10;;;;;;;18.33;7.17;;;14.50;75.60;;;;;;5117140;28;20438;-57
2023/05/27 05:55:39;;;;;;;17.30;8.40;;;14.60;75.90;;;;;;5117130;28;20546;-57
2023/05/27 05:58:05;;;;;;;16.70;7.43;;;14.70;76.30;;;;;;5116996;28;20477;-57
2023/05/27 06:00:33;;;;;;;10.17;7.40;;;14.70;76.00;;;;;;5116987;28;20803;-57
2023/05/27 06:03:00;;;;;;;24.90;8.50;;;14.80;76.00;;;;;;5116959;28;20446;-57
2023/05/27 06:05:26;;;;;;;14.40;7.43;;;14.90;76.00;;;;;;5116816;28;20466;-57
2023/05/27 06:07:54;;;;;;;15.80;7.17;;;14.90;75.70;;;;;;5116914;28;20445;-57
2023/05/27 06:10:20;;;;;;;13.87;6.70;;;15.00;75.60;;;;;;5116644;28;20542;-57
2023/05/27 06:12:48;;;;;;;14.37;7.13;;;15.10;75.70;;;;;;5116756;28;20427;-57
2023/05/27 06:15:15;;;;;;;16.20;6.80;;;15.10;75.20;;;;;;5116731;28;20667;-57
2023/05/27 06:17:42;;;;;;;19.10;8.47;;;15.20;75.20;;;;;;5116623;28;20474;-57
2023/05/27 06:20:09;;;;;;;13.70;6.60;;;15.40;75.50;;;;;;5116640;28;20442;-57
2023/05/27 06:22:36;;;;;;;18.27;7.23;;;15.40;74.90;;;;;;5116733;28;20454;-57
2023/05/27 06:25:02;;;;;;;12.30;7.57;;;15.60;74.90;;;;;;5116150;28;20983;-57
2023/05/27 06:27:29;;;;;;;16.03;8.30;;;15.70;74.40;;;;;;5116519;28;20447;-57
2023/05/27 06:29:57;;;;;;;16.60;8.77;;;15.80;74.10;;;;;;5116447;28;20443;-57
2023/05/27 06:32:24;;;;;;;14.57;8.00;;;15.90;73.80;;;;;;5116381;28;20455;-57
2023/05/27 06:34:51;;;;;;;16.57;7.30;;;16.00;73.50;;;;;;5116846;28;20486;-57
2023/05/27 06:37:17;;;;;;;13.53;6.87;;;16.10;73.40;;;;;;5117141;28;20489;-57
2023/05/27 06:39:44;;;;;;;16.93;7.20;;;16.20;72.80;;;;;;5116354;28;20450;-56
2023/05/27 06:42:11;;;;;;;15.50;7.73;;;16.30;71.80;;;;;;5116221;28;20789;-57
2023/05/27 06:44:37;;;;;;;21.10;7.90;;;16.40;72.40;;;;;;5116113;28;20446;-57
2023/05/27 06:47:06;;;;;;;13.40;7.30;;;16.60;72.30;;;;;;5116060;28;20562;-57
2023/05/27 06:49:32;;;;;;;16.00;7.70;;;16.70;71.60;;;;;;5116070;28;20442;-57
2023/05/27 06:51:59;;;;;;;16.80;7.60;;;16.90;71.30;;;;;;5116153;28;20454;-57
2023/05/27 06:54:26;;;;;;;15.30;6.70;;;17.00;71.00;;;;;;5116002;28;20822;-57
2023/05/27 06:56:53;;;;;;;14.70;6.00;;;17.20;70.70;;;;;;5115880;28;20466;-57
2023/05/27 06:59:20;;;;;;;13.27;6.57;;;17.30;69.50;;;;;;5116061;28;20454;-57
2023/05/27 07:01:46;;;;;;;14.93;6.10;;;17.50;69.00;;;;;;5115819;28;20457;-57
2023/05/27 07:04:14;;;;;;;13.33;6.80;;;17.60;68.00;;;;;;5115791;28;20443;-57
2023/05/27 07:06:41;;;;;;;14.53;5.50;;;17.80;67.60;;;;;;5115642;28;21023;-57
2023/05/27 07:09:08;;;;;;;12.53;6.27;;;18.00;66.70;;;;;;5116173;28;20450;-57
2023/05/27 07:11:34;;;;;;;9.77;5.13;;;18.30;65.40;;;;;;5117050;28;20971;-57
2023/05/27 07:14:01;;;;;;;13.93;5.80;;;18.40;63.60;;;;;;5116155;28;20447;-57
2023/05/27 07:16:28;;;;;;;9.13;4.77;;;18.60;62.10;;;;;;5115881;28;20503;-57
2023/05/27 07:18:54;;;;;;;12.87;5.20;;;18.80;61.20;;;;;;5115836;28;20475;-57
2023/05/27 07:21:22;;;;;;;13.10;5.90;;;19.00;60.20;;;;;;5115840;28;20861;-57
2023/05/27 07:23:49;;;;;;;10.53;4.43;;;19.10;59.30;;;;;;5115947;28;20443;-57
2023/05/27 07:26:16;;;;;;;13.20;5.63;;;19.30;58.40;;;;;;5115419;28;20497;-57
2023/05/27 07:28:44;;;;;;;13.50;5.80;;;19.40;57.70;;;;;;5115374;28;20446;-57
2023/05/27 07:31:11;;;;;;;21.57;6.37;;;19.50;56.90;;;;;;5115299;28;20465;-57
2023/05/27 07:33:37;;;;;;;12.67;5.47;;;19.60;54.10;;;;;;5115267;28;20453;-57
2023/05/27 07:36:04;;;;;;;9.97;5.10;;;19.60;54.20;;;;;;5115228;28;20467;-57
2023/05/27 07:38:32;;;;;;;10.47;4.70;;;19.70;55.00;;;;;;5115204;28;20525;-57
2023/05/27 07:40:59;;;;;;;12.97;5.07;;;19.80;54.80;;;;;;5115169;28;20443;-57
2023/05/27 07:43:26;;;;;;;11.47;5.23;;;20.10;55.10;;;;;;5114997;28;20967;-57
2023/05/27 07:45:52;;;;;;;16.30;6.10;;;20.20;54.50;;;;;;5114718;28;20884;-57
2023/05/27 07:48:19;;;;;;;11.93;5.17;;;20.50;54.10;;;;;;5115027;28;20447;-57
2023/05/27 07:50:46;;;;;;;14.10;5.20;;;20.60;51.80;;;;;;5114993;28;20447;-57
2023/05/27 07:53:12;;;;;;;11.03;5.70;;;20.80;52.30;;;;;;5114903;28;20449;-56
2023/05/27 07:55:41;;;;;;;14.33;5.23;;;20.90;53.20;;;;;;5114336;28;20467;-56
2023/05/27 07:58:07;;;;;;;12.27;4.70;;;21.10;53.20;;;;;;5114603;28;20481;-57
2023/05/27 08:00:34;;;;;;;11.10;5.10;;;21.30;53.00;;;;;;5114739;28;20446;-57
2023/05/27 08:03:01;;;;;;;9.30;5.60;;;21.50;52.30;;;;;;5114335;28;20517;-54
2023/05/27 08:05:27;;;;;;;13.73;5.30;;;21.70;51.50;;;;;;5114235;28;20515;-56
2023/05/27 08:07:54;;;;;;;11.33;4.67;;;22.00;50.50;;;;;;5114520;28;20462;-56
2023/05/27 08:10:21;;;;;;;10.07;4.80;;;22.30;50.30;;;;;;5114407;28;20821;-57
2023/05/27 08:12:49;;;;;;;10.47;5.70;;;22.40;49.20;;;;;;5114577;28;20431;-57
2023/05/27 08:15:15;;;;;;;11.10;5.17;;;22.60;46.60;;;;;;5115257;28;20473;-57
2023/05/27 08:17:43;;;;;;;8.87;4.60;;;22.80;46.00;;;;;;5114079;28;20991;-57
2023/05/27 08:20:10;;;;;;;8.90;4.20;;;23.00;46.30;;;;;;5114351;28;20450;-57
2023/05/27 08:22:37;;;;;;;8.73;3.60;;;23.20;47.00;;;;;;5114314;28;20454;-57
2023/05/27 08:25:04;;;;;;;10.03;4.50;;;23.30;46.60;;;;;;5114201;28;20522;-57
2023/05/27 08:27:44;;;;;;;11.20;4.27;;;23.50;45.80;;;;;;5114243;28;20439;-57
2023/05/27 08:30:14;;;;;;;9.93;4.20;;;23.80;45.50;;;;;;5114280;27;20477;-57
2023/05/27 08:32:41;;;;;;;13.30;4.80;;;24.00;44.70;;;;;;5114217;28;20443;-57
2023/05/27 08:35:08;;;;;;;13.07;4.60;;;24.10;44.30;;;;;;5114096;28;20550;-57
2023/05/27 08:37:35;;;;;;;8.90;3.57;;;24.30;43.50;;;;;;5113996;28;20475;-57
2023/05/27 08:40:05;;;;;;;11.37;5.00;;;24.40;43.50;;;;;;5114169;28;20475;-57
2023/05/27 08:42:32;;;;;;;10.90;4.70;;;24.60;43.20;;;;;;5113919;28;20446;-57
2023/05/27 08:44:59;;;;;;;8.83;4.30;;;24.80;41.90;;;;;;5113834;28;20451;-57
2023/05/27 08:47:29;;;;;;;10.00;4.50;;;25.00;42.40;;;;;;5113889;28;20468;-57
2023/05/27 08:49:56;;;;;;;11.97;4.93;;;25.20;43.00;;;;;;5113964;28;20465;-57
2023/05/27 08:52:25;;;;;;;10.20;5.00;;;25.40;42.70;;;;;;5113934;28;20450;-57
2023/05/27 08:54:52;;;;;;;16.50;5.50;;;25.60;42.30;;;;;;5113746;28;20812;-57
2023/05/27 08:57:22;;;;;;;10.30;5.23;;;25.90;42.00;;;;;;5113712;28;20446;-58
2023/05/27 08:59:49;;;;;;;9.40;5.00;;;26.10;41.80;;;;;;5113788;28;20455;-58
2023/05/27 09:02:18;;;;;;;10.30;5.60;;;26.20;41.30;;;;;;5113763;28;20450;-57
2023/05/27 09:04:47;;;;;;;11.70;5.20;;;26.40;41.20;;;;;;5113323;28;20447;-57
2023/05/27 09:07:14;;;;;;;14.43;6.43;;;26.60;41.00;;;;;;5115511;28;20937;-57
2023/05/27 09:09:40;;;;;;;12.10;5.63;;;26.90;40.70;;;;;;5117999;28;20787;-58
2023/05/27 09:12:08;;;;;;;16.97;5.70;;;27.00;39.60;;;;;;5117503;28;21044;-58
2023/05/27 09:14:37;;;;;;;10.80;5.90;;;27.20;39.60;;;;;;5117993;28;20534;-58
2023/05/27 09:17:06;;;;;;;11.90;5.70;;;27.40;39.80;;;;;;5117813;28;20470;-58
2023/05/27 09:19:33;;;;;;;11.50;5.60;;;27.60;39.40;;;;;;5118007;28;20489;-58
2023/05/27 09:22:01;;;;;;;10.53;4.83;;;27.80;39.00;;;;;;5117731;28;20450;-58
2023/05/27 09:24:28;;;;;;;12.60;5.00;;;28.00;38.50;;;;;;5117746;28;20449;-58
2023/05/27 09:26:55;;;;;;;11.67;4.70;;;28.20;37.60;;;;;;5117605;28;20463;-57
2023/05/27 09:29:24;;;;;;;11.10;5.43;;;28.40;37.00;;;;;;5117343;28;20435;-58
2023/05/27 09:31:54;;;;;;;13.10;5.10;;;28.40;35.90;;;;;;5117594;28;20447;-58
2023/05/27 09:34:21;;;;;;;9.60;4.97;;;28.50;36.00;;;;;;5117501;28;20450;-58
2023/05/27 09:36:49;;;;;;;12.97;5.87;;;28.60;36.10;;;;;;5117390;28;20466;-57
2023/05/27 09:39:19;;;;;;;9.60;4.70;;;28.80;36.00;;;;;;5117370;28;20523;-58
2023/05/27 09:41:51;;;;;;;10.60;4.80;;;28.90;35.10;;;;;;5117117;28;20991;-57
2023/05/27 09:44:18;;;;;;;9.33;5.30;;;29.10;35.00;;;;;;5117430;28;20495;-58
2023/05/27 09:46:46;;;;;;;9.67;4.90;;;29.30;35.70;;;;;;5117230;28;20803;-57
2023/05/27 09:49:14;;;;;;;14.77;6.00;;;29.50;35.20;;;;;;5117153;28;20439;-58
2023/05/27 09:51:42;;;;;;;7.80;5.07;;;29.80;33.90;;;;;;5116815;28;20953;-58
2023/05/27 09:54:09;;;;;;;14.23;6.03;;;29.90;34.00;;;;;;5117075;28;20442;-58
2023/05/27 09:56:37;;;;;;;11.80;4.97;;;30.00;33.20;;;;;;5118106;28;20466;-57
2023/05/27 09:59:07;;;;;;;11.40;5.53;;;30.20;33.20;;;;;;5116988;28;20481;-58
2023/05/27 10:01:33;;;;;;;9.97;5.20;;;30.50;33.10;;;;;;5117543;28;20450;-58
2023/05/27 10:04:01;;;;;;;13.07;5.30;;;30.80;32.10;;;;;;5117357;28;20446;-58
2023/05/27 10:06:27;;;;;;;12.23;5.93;;;31.10;32.00;;;;;;5117196;28;20465;-58
2023/05/27 10:08:55;;;;;;;11.30;5.57;;;31.40;31.40;;;;;;5117454;28;20481;-58
2023/05/27 10:11:23;;;;;;;18.03;5.40;;;31.70;31.40;;;;;;5116908;28;20482;-58
2023/05/27 10:13:51;;;;;;;13.80;5.70;;;32.00;30.70;;;;;;5116972;28;20454;-58
2023/05/27 10:16:21;;;;;;;32.77;7.27;;;32.30;30.50;;;;;;5116894;28;20841;-56
2023/05/27 10:18:52;;;;;;;142.37;14.50;;;32.60;30.00;;;;;;5116426;28;20901;-56
2023/05/27 10:21:21;;;;;;;14.67;6.30;;;32.90;29.80;;;;;;5116964;28;20430;-55
2023/05/27 10:23:53;;;;;;;12.27;5.53;;;33.30;28.50;;;;;;5117000;28;20497;-57
2023/05/27 10:26:21;;;;;;;9.17;4.93;;;33.70;28.10;;;;;;5117297;28;20488;-56
2023/05/27 10:28:47;;;;;;;11.00;5.60;;;34.10;27.70;;;;;;5116792;28;20446;-56
2023/05/27 10:31:19;;;;;;;8.93;5.33;;;34.50;26.70;;;;;;5116714;28;20473;-57
2023/05/27 10:33:47;;;;;;;11.53;5.80;;;34.80;26.10;;;;;;5116828;28;20505;-56
2023/05/27 10:36:16;;;;;;;15.03;5.70;;;35.20;26.30;;;;;;5117005;28;20228;-57
2023/05/27 10:38:43;;;;;;;11.20;5.83;;;35.70;26.10;;;;;;5116519;28;20228;-57
2023/05/27 10:41:10;;;;;;;15.57;5.17;;;36.10;25.50;;;;;;5116568;28;20200;-57
2023/05/27 10:43:37;;;;;;;9.30;5.43;;;36.50;24.80;;;;;;5116602;28;20207;-57
2023/05/27 10:46:05;;;;;;;9.35;4.82;;;37.00;24.20;;;;;;5117438;28;20216;-57
2023/05/27 10:48:34;;;;;;;16.83;5.88;;;37.40;23.50;;;;;;5118373;28;20231;-57
2023/05/27 10:51:01;;;;;;;10.60;5.45;;;37.80;23.70;;;;;;5118497;28;20205;-56
2023/05/27 10:53:29;;;;;;;10.45;6.07;;;38.20;23.10;;;;;;5116178;28;20200;-56
2023/05/27 10:55:59;;;;;;;9.13;5.03;;;38.70;22.70;;;;;;5115977;28;20216;-57
2023/05/27 10:58:26;;;;;;;11.57;5.50;;;39.10;22.20;;;;;;5116009;28;20208;-57
2023/05/27 11:00:54;;;;;;;10.23;5.40;;;39.60;21.50;;;;;;5116048;28;20204;-57
2023/05/27 11:03:22;;;;;;;10.35;6.13;;;40.00;20.70;;;;;;5115887;28;20197;-57
2023/05/27 11:05:58;;;;;;;10.18;5.30;;;40.40;20.40;;;;;;5115798;28;20322;-57
2023/05/27 11:08:25;;;;;;;10.40;5.90;;;40.70;20.00;;;;;;5115921;28;20209;-57
2023/05/27 11:10:52;;;;;;;12.18;5.50;;;41.00;19.30;;;;;;5115024;28;20438;-57
2023/05/27 11:13:18;;;;;;;13.07;5.50;;;41.20;19.10;;;;;;5115610;28;20228;-57
2023/05/27 11:15:45;;;;;;;9.30;5.30;;;41.10;19.10;;;;;;5115465;28;20220;-57
2023/05/27 11:18:12;;;;;;;9.68;5.18;;;41.10;19.30;;;;;;5115381;28;20200;-57
2023/05/27 11:20:39;;;;;;;12.57;6.15;;;41.30;19.30;;;;;;5115207;28;20701;-57
2023/05/27 11:23:07;;;;;;;12.15;5.50;;;41.50;19.10;;;;;;5115208;28;20614;-57
2023/05/27 11:25:45;;;;;;;11.02;5.55;;;41.70;18.50;;;;;;5115319;28;20224;-57
2023/05/27 11:28:16;;;;;;;10.75;5.30;;;41.90;18.60;;;;;;5115485;28;20536;-57
2023/05/27 11:30:43;;;;;;;8.45;4.93;;;42.10;18.60;;;;;;5114449;28;20234;-57
2023/05/27 11:33:10;;;;;;;8.93;5.43;;;42.30;18.30;;;;;;5115244;28;20249;-57
2023/05/27 11:35:37;;;;;;;11.63;5.88;;;42.70;18.00;;;;;;5115115;28;20657;-57
2023/05/27 11:38:04;;;;;;;8.02;4.78;;;43.00;17.50;;;;;;5115173;28;20201;-57
2023/05/27 11:40:37;;;;;;;11.50;4.70;;;43.30;17.30;;;;;;5114944;28;20315;-57
2023/05/27 11:43:03;;;;;;;10.63;5.20;;;43.50;17.50;;;;;;5114978;28;20181;-57
2023/05/27 11:45:35;;;;;;;10.23;5.90;;;43.80;17.50;;;;;;5115236;28;20216;-57
2023/05/27 11:48:03;;;;;;;8.05;4.68;;;44.10;17.20;;;;;;5114831;28;20207;-57
2023/05/27 11:50:30;;;;;;;14.02;5.18;;;44.20;16.80;;;;;;5114454;28;20197;-58
2023/05/27 11:53:03;;;;;;;8.63;5.00;;;44.30;16.40;;;;;;5114779;28;20200;-58
2023/05/27 11:55:31;;;;;;;8.80;5.20;;;44.60;16.20;;;;;;5114531;28;20786;-57
2023/05/27 11:57:59;;;;;;;10.02;5.60;;;44.80;15.60;;;;;;5114818;28;20197;-58
2023/05/27 12:00:25;;;;;;;8.35;4.88;;;44.90;15.20;;;;;;5114582;28;20217;-57
2023/05/27 12:02:52;;;;;;;11.95;5.25;;;44.90;15.90;;;;;;5114736;28;20223;-56
2023/05/27 12:05:19;;;;;;;10.40;5.20;;;44.90;15.80;;;;;;5114011;28;20635;-57
2023/05/27 12:07:46;;;;;;;7.80;4.57;;;45.10;15.80;;;;;;5114643;28;20204;-57
2023/05/27 12:10:12;;;;;;;9.45;4.60;;;45.20;14.60;;;;;;5114402;28;20203;-57
2023/05/27 12:12:41;;;;;;;7.30;4.15;;;45.10;15.50;;;;;;5114443;28;20211;-57
2023/05/27 12:15:10;;;;;;;8.63;4.15;;;45.20;15.80;;;;;;5114439;28;20216;-57
2023/05/27 12:17:38;;;;;;;8.55;4.97;;;45.30;15.70;;;;;;5114215;28;20638;-57
2023/05/27 12:20:06;;;;;;;12.07;5.15;;;45.60;15.70;;;;;;5114027;28;20568;-57
2023/05/27 12:22:32;;;;;;;11.68;5.38;;;45.70;14.70;;;;;;5114422;28;20231;-57
2023/05/27 12:24:59;;;;;;;11.13;5.22;;;45.90;14.60;;;;;;5114377;28;20614;-57
2023/05/27 12:27:26;;;;;;;9.43;5.00;;;46.10;14.70;;;;;;5114215;28;20201;-58
2023/05/27 12:29:52;;;;;;;7.65;4.00;;;46.40;14.60;;;;;;5114184;28;20192;-57
2023/05/27 12:32:21;;;;;;;9.57;4.60;;;46.60;14.40;;;;;;5114189;28;20205;-57
2023/05/27 12:34:48;;;;;;;7.55;4.00;;;46.70;14.40;;;;;;5114119;28;20209;-58
2023/05/27 12:37:14;;;;;;;9.70;4.70;;;46.90;14.30;;;;;;5114174;28;20196;-58
2023/05/27 12:39:41;;;;;;;6.93;4.10;;;46.90;14.00;;;;;;5114011;28;20220;-58